sensor_id;sensor_type;location;lat;lon;timestamp;pressure;altitude;pressure_sealevel;temperature;humidity
11345;BME280;5727;42.600;23.028;2022-07-25T00:01:52;93805.06;;;22.71;100.00
11345;BME280;5727;42.600;23.028;2022-07-25T00:04:19;93808.97;;;22.66;100.00
11345;BME280;5727;42.600;23.028;2022-07-25T00:06:46;93799.38;;;22.69;100.00
11345;BME280;5727;42.600;23.028;2022-07-25T00:09:13;93801.66;;;22.70;100.00
11345;BME280;5727;42.600;23.028;2022-07-25T00:11:41;93802.03;;;22.69;100.00
11345;BME280;5727;42.600;23.028;2022-07-25T00:14:08;93791.00;;;22.67;100.00
11345;BME280;5727;42.600;23.028;2022-07-25T00:16:35;93783.34;;;22.69;100.00
11345;BME280;5727;42.600;23.028;2022-07-25T00:19:01;93794.13;;;22.62;100.00
11345;BME280;5727;42.600;23.028;2022-07-25T00:21:28;93786.47;;;22.64;100.00
11345;BME280;5727;42.600;23.028;2022-07-25T00:23:55;93784.97;;;22.63;100.00
11345;BME280;5727;42.600;23.028;2022-07-25T00:26:22;93781.56;;;22.59;100.00
11345;BME280;5727;42.600;23.028;2022-07-25T00:28:50;93785.69;;;22.63;100.00
11345;BME280;5727;42.600;23.028;2022-07-25T00:31:17;93785.69;;;22.63;100.00
11345;BME280;5727;42.600;23.028;2022-07-25T00:33:43;93777.38;;;22.58;100.00
11345;BME280;5727;42.600;23.028;2022-07-25T00:36:10;93783.56;;;22.48;100.00
11345;BME280;5727;42.600;23.028;2022-07-25T00:38:37;93775.91;;;22.50;100.00
11345;BME280;5727;42.600;23.028;2022-07-25T00:41:04;93783.50;;;22.55;100.00
11345;BME280;5727;42.600;23.028;2022-07-25T00:43:31;93772.81;;;22.55;100.00
11345;BME280;5727;42.600;23.028;2022-07-25T00:45:59;93772.00;;;22.61;100.00
11345;BME280;5727;42.600;23.028;2022-07-25T00:48:26;93770.44;;;22.64;100.00
11345;BME280;5727;42.600;23.028;2022-07-25T00:50:53;93770.81;;;22.66;100.00
11345;BME280;5727;42.600;23.028;2022-07-25T00:53:21;93768.50;;;22.68;100.00
11345;BME280;5727;42.600;23.028;2022-07-25T00:55:48;93764.66;;;22.69;100.00
11345;BME280;5727;42.600;23.028;2022-07-25T00:58:15;93770.53;;;22.57;100.00
11345;BME280;5727;42.600;23.028;2022-07-25T01:00:43;93769.38;;;22.58;100.00
11345;BME280;5727;42.600;23.028;2022-07-25T01:03:12;93766.03;;;22.47;100.00
11345;BME280;5727;42.600;23.028;2022-07-25T01:05:38;93767.94;;;22.46;100.00
11345;BME280;5727;42.600;23.028;2022-07-25T01:08:06;93766.75;;;22.51;100.00
11345;BME280;5727;42.600;23.028;2022-07-25T01:10:33;93764.84;;;22.51;100.00
11345;BME280;5727;42.600;23.028;2022-07-25T01:13:00;93757.63;;;22.48;100.00
11345;BME280;5727;42.600;23.028;2022-07-25T01:15:29;93758.78;;;22.47;100.00
11345;BME280;5727;42.600;23.028;2022-07-25T01:17:58;93758.44;;;22.45;100.00
11345;BME280;5727;42.600;23.028;2022-07-25T01:20:28;93750.78;;;22.47;100.00
11345;BME280;5727;42.600;23.028;2022-07-25T01:22:56;93749.25;;;22.46;100.00
11345;BME280;5727;42.600;23.028;2022-07-25T01:25:41;93755.78;;;22.42;100.00
11345;BME280;5727;42.600;23.028;2022-07-25T01:28:08;93756.94;;;22.41;100.00
11345;BME280;5727;42.600;23.028;2022-07-25T01:30:35;93759.22;;;22.42;100.00
11345;BME280;5727;42.600;23.028;2022-07-25T01:33:01;93750.53;;;22.35;100.00
11345;BME280;5727;42.600;23.028;2022-07-25T01:35:30;93751.69;;;22.34;100.00
11345;BME280;5727;42.600;23.028;2022-07-25T01:37:56;93759.34;;;22.32;100.00
11345;BME280;5727;42.600;23.028;2022-07-25T01:40:23;93760.16;;;22.25;100.00
11345;BME280;5727;42.600;23.028;2022-07-25T01:42:50;93757.88;;;22.24;100.00
11345;BME280;5727;42.600;23.028;2022-07-25T01:45:16;93762.50;;;22.20;100.00
11345;BME280;5727;42.600;23.028;2022-07-25T01:47:43;93761.00;;;22.19;100.00
11345;BME280;5727;42.600;23.028;2022-07-25T01:50:10;93759.84;;;22.20;100.00
11345;BME280;5727;42.600;23.028;2022-07-25T01:52:38;93760.19;;;22.22;100.00
11345;BME280;5727;42.600;23.028;2022-07-25T01:55:06;93760.16;;;22.25;100.00
11345;BME280;5727;42.600;23.028;2022-07-25T01:57:33;93756.75;;;22.21;100.00
11345;BME280;5727;42.600;23.028;2022-07-25T01:59:59;93761.38;;;22.17;100.00
11345;BME280;5727;42.600;23.028;2022-07-25T02:02:26;93761.84;;;22.09;100.00
11345;BME280;5727;42.600;23.028;2022-07-25T02:04:53;93758.06;;;22.06;100.00
11345;BME280;5727;42.600;23.028;2022-07-25T02:07:20;93761.91;;;22.05;100.00
11345;BME280;5727;42.600;23.028;2022-07-25T02:09:48;93764.97;;;22.00;100.00
11345;BME280;5727;42.600;23.028;2022-07-25T02:12:14;93756.56;;;22.02;100.00
11345;BME280;5727;42.600;23.028;2022-07-25T02:14:41;93752.03;;;21.99;100.00
11345;BME280;5727;42.600;23.028;2022-07-25T02:17:08;93751.69;;;21.97;100.00
11345;BME280;5727;42.600;23.028;2022-07-25T02:19:35;93761.94;;;21.98;100.00
11345;BME280;5727;42.600;23.028;2022-07-25T02:22:02;93754.75;;;21.95;100.00
11345;BME280;5727;42.600;23.028;2022-07-25T02:24:29;93759.03;;;21.86;100.00
11345;BME280;5727;42.600;23.028;2022-07-25T02:26:58;93761.38;;;21.73;100.00
11345;BME280;5727;42.600;23.028;2022-07-25T02:29:25;93760.25;;;21.74;100.00
11345;BME280;5727;42.600;23.028;2022-07-25T02:31:51;93757.19;;;21.72;100.00
11345;BME280;5727;42.600;23.028;2022-07-25T02:34:18;93759.19;;;21.64;100.00
11345;BME280;5727;42.600;23.028;2022-07-25T02:36:45;93761.09;;;21.60;100.00
11345;BME280;5727;42.600;23.028;2022-07-25T02:39:12;93768.75;;;21.58;100.00
11345;BME280;5727;42.600;23.028;2022-07-25T02:41:38;93769.94;;;21.50;100.00
11345;BME280;5727;42.600;23.028;2022-07-25T02:44:07;93771.81;;;21.57;100.00
11345;BME280;5727;42.600;23.028;2022-07-25T02:46:33;93769.50;;;21.59;100.00
11345;BME280;5727;42.600;23.028;2022-07-25T02:49:01;93774.47;;;21.57;100.00
11345;BME280;5727;42.600;23.028;2022-07-25T02:51:28;93773.31;;;21.58;100.00
11345;BME280;5727;42.600;23.028;2022-07-25T02:53:54;93770.66;;;21.54;100.00
11345;BME280;5727;42.600;23.028;2022-07-25T02:56:21;93777.91;;;21.54;100.00
11345;BME280;5727;42.600;23.028;2022-07-25T02:58:48;93782.09;;;21.55;100.00
11345;BME280;5727;42.600;23.028;2022-07-25T03:01:16;93774.50;;;21.50;100.00
11345;BME280;5727;42.600;23.028;2022-07-25T03:03:43;93771.47;;;21.48;100.00
11345;BME280;5727;42.600;23.028;2022-07-25T03:06:09;93774.91;;;21.48;100.00
11345;BME280;5727;42.600;23.028;2022-07-25T03:08:36;93783.66;;;21.49;100.00
11345;BME280;5727;42.600;23.028;2022-07-25T03:11:03;93774.91;;;21.48;100.00
11345;BME280;5727;42.600;23.028;2022-07-25T03:13:30;93781.41;;;21.47;100.00
11345;BME280;5727;42.600;23.028;2022-07-25T03:15:58;93779.13;;;21.42;100.00
11345;BME280;5727;42.600;23.028;2022-07-25T03:18:26;93779.59;;;21.30;100.00
11345;BME280;5727;42.600;23.028;2022-07-25T03:20:53;93786.41;;;21.35;100.00
11345;BME280;5727;42.600;23.028;2022-07-25T03:23:20;93795.16;;;21.35;100.00
11345;BME280;5727;42.600;23.028;2022-07-25T03:25:46;93785.28;;;21.36;100.00
11345;BME280;5727;42.600;23.028;2022-07-25T03:28:13;93793.66;;;21.34;100.00
11345;BME280;5727;42.600;23.028;2022-07-25T03:30:40;93783.34;;;21.36;100.00
11345;BME280;5727;42.600;23.028;2022-07-25T03:33:07;93782.63;;;21.32;100.00
11345;BME280;5727;42.600;23.028;2022-07-25T03:35:37;93781.50;;;21.30;100.00
11345;BME280;5727;42.600;23.028;2022-07-25T03:38:04;93782.28;;;21.30;100.00
11345;BME280;5727;42.600;23.028;2022-07-25T03:40:30;93783.03;;;21.27;100.00
11345;BME280;5727;42.600;23.028;2022-07-25T03:42:57;93783.81;;;21.24;100.00
11345;BME280;5727;42.600;23.028;2022-07-25T03:45:24;93774.00;;;21.11;100.00
11345;BME280;5727;42.600;23.028;2022-07-25T03:47:51;93778.53;;;21.14;100.00
11345;BME280;5727;42.600;23.028;2022-07-25T03:50:17;93783.84;;;21.17;100.00
11345;BME280;5727;42.600;23.028;2022-07-25T03:52:46;93779.25;;;21.21;100.00
11345;BME280;5727;42.600;23.028;2022-07-25T03:55:14;93776.59;;;21.21;100.00
11345;BME280;5727;42.600;23.028;2022-07-25T03:57:40;93782.03;;;21.04;100.00
11345;BME280;5727;42.600;23.028;2022-07-25T04:00:09;93787.75;;;21.02;100.00
11345;BME280;5727;42.600;23.028;2022-07-25T04:02:36;93777.09;;;20.98;100.00
11345;BME280;5727;42.600;23.028;2022-07-25T04:05:04;93778.22;;;20.94;100.00
11345;BME280;5727;42.600;23.028;2022-07-25T04:07:31;93786.97;;;21.05;100.00
11345;BME280;5727;42.600;23.028;2022-07-25T04:09:59;93794.59;;;21.03;100.00
11345;BME280;5727;42.600;23.028;2022-07-25T04:12:26;93791.88;;;21.14;100.00
11345;BME280;5727;42.600;23.028;2022-07-25T04:14:53;93792.97;;;21.23;100.00
11345;BME280;5727;42.600;23.028;2022-07-25T04:17:19;93791.41;;;21.29;100.00
11345;BME280;5727;42.600;23.028;2022-07-25T04:19:46;93796.69;;;21.36;100.00
11345;BME280;5727;42.600;23.028;2022-07-25T04:22:13;93789.41;;;21.44;100.00
11345;BME280;5727;42.600;23.028;2022-07-25T04:24:40;93791.63;;;21.52;100.00
11345;BME280;5727;42.600;23.028;2022-07-25T04:27:08;93787.41;;;21.58;100.00
11345;BME280;5727;42.600;23.028;2022-07-25T04:29:35;93790.00;;;21.65;100.00
11345;BME280;5727;42.600;23.028;2022-07-25T04:32:01;93793.75;;;21.75;100.00
11345;BME280;5727;42.600;23.028;2022-07-25T04:34:28;93796.38;;;21.78;100.00
11345;BME280;5727;42.600;23.028;2022-07-25T04:36:55;93796.78;;;21.80;100.00
11345;BME280;5727;42.600;23.028;2022-07-25T04:39:22;93788.03;;;21.80;100.00
11345;BME280;5727;42.600;23.028;2022-07-25T04:41:48;93793.25;;;21.91;100.00
11345;BME280;5727;42.600;23.028;2022-07-25T04:44:17;93793.22;;;21.98;100.00
11345;BME280;5727;42.600;23.028;2022-07-25T04:46:43;93784.06;;;21.99;100.00
11345;BME280;5727;42.600;23.028;2022-07-25T04:49:10;93788.94;;;22.07;100.00
11345;BME280;5727;42.600;23.028;2022-07-25T04:51:37;93789.81;;;21.94;100.00
11345;BME280;5727;42.600;23.028;2022-07-25T04:54:04;93795.63;;;21.78;100.00
11345;BME280;5727;42.600;23.028;2022-07-25T04:56:31;93791.94;;;21.61;100.00
11345;BME280;5727;42.600;23.028;2022-07-25T04:58:58;93798.00;;;21.65;100.00
11345;BME280;5727;42.600;23.028;2022-07-25T05:01:26;93804.13;;;21.62;100.00
11345;BME280;5727;42.600;23.028;2022-07-25T05:03:52;93794.22;;;21.59;100.00
11345;BME280;5727;42.600;23.028;2022-07-25T05:06:19;93792.00;;;21.54;100.00
11345;BME280;5727;42.600;23.028;2022-07-25T05:08:47;93791.72;;;21.38;100.00
11345;BME280;5727;42.600;23.028;2022-07-25T05:11:13;93789.06;;;21.38;100.00
11345;BME280;5727;42.600;23.028;2022-07-25T05:13:40;93788.66;;;21.43;100.00
11345;BME280;5727;42.600;23.028;2022-07-25T05:16:07;93788.97;;;21.52;100.00
11345;BME280;5727;42.600;23.028;2022-07-25T05:18:35;93790.88;;;21.55;100.00
11345;BME280;5727;42.600;23.028;2022-07-25T05:21:02;93792.72;;;21.58;100.00
11345;BME280;5727;42.600;23.028;2022-07-25T05:23:29;93794.97;;;21.63;100.00
11345;BME280;5727;42.600;23.028;2022-07-25T05:25:56;93793.03;;;21.67;100.00
11345;BME280;5727;42.600;23.028;2022-07-25T05:28:23;93798.72;;;21.73;100.00
11345;BME280;5727;42.600;23.028;2022-07-25T05:30:49;93794.50;;;21.75;100.00
11345;BME280;5727;42.600;23.028;2022-07-25T05:33:16;93799.44;;;21.80;100.00
11345;BME280;5727;42.600;23.028;2022-07-25T05:35:44;93798.59;;;21.91;100.00
11345;BME280;5727;42.600;23.028;2022-07-25T05:38:11;93799.72;;;21.93;100.00
11345;BME280;5727;42.600;23.028;2022-07-25T05:40:38;93793.16;;;22.05;100.00
11345;BME280;5727;42.600;23.028;2022-07-25T05:43:04;93790.41;;;22.12;100.00
11345;BME280;5727;42.600;23.028;2022-07-25T05:45:31;93791.13;;;22.16;100.00
11345;BME280;5727;42.600;23.028;2022-07-25T05:47:58;93794.09;;;22.25;100.00
11345;BME280;5727;42.600;23.028;2022-07-25T05:50:24;93788.34;;;22.30;100.00
11345;BME280;5727;42.600;23.028;2022-07-25T05:52:53;93789.69;;;22.45;100.00
11345;BME280;5727;42.600;23.028;2022-07-25T05:55:19;93790.31;;;22.63;100.00
11345;BME280;5727;42.600;23.028;2022-07-25T05:57:46;93790.53;;;22.76;100.00
11345;BME280;5727;42.600;23.028;2022-07-25T06:00:14;93793.19;;;22.76;100.00
11345;BME280;5727;42.600;23.028;2022-07-25T06:02:40;93788.47;;;22.87;100.00
11345;BME280;5727;42.600;23.028;2022-07-25T06:05:08;93787.59;;;22.97;100.00
11345;BME280;5727;42.600;23.028;2022-07-25T06:07:34;93783.38;;;22.99;100.00
11345;BME280;5727;42.600;23.028;2022-07-25T06:10:03;93786.75;;;23.03;100.00
11345;BME280;5727;42.600;23.028;2022-07-25T06:12:30;93784.94;;;23.23;100.00
11345;BME280;5727;42.600;23.028;2022-07-25T06:14:58;93790.16;;;23.37;100.00
11345;BME280;5727;42.600;23.028;2022-07-25T06:17:25;93785.44;;;23.45;100.00
11345;BME280;5727;42.600;23.028;2022-07-25T06:19:51;93785.25;;;23.59;100.00
11345;BME280;5727;42.600;23.028;2022-07-25T06:22:18;93782.75;;;23.72;98.88
11345;BME280;5727;42.600;23.028;2022-07-25T06:24:45;93782.91;;;23.84;99.63
11345;BME280;5727;42.600;23.028;2022-07-25T06:27:14;93783.81;;;24.01;98.79
11345;BME280;5727;42.600;23.028;2022-07-25T06:29:41;93781.50;;;24.03;95.62
11345;BME280;5727;42.600;23.028;2022-07-25T06:32:08;93785.34;;;24.02;94.57
11345;BME280;5727;42.600;23.028;2022-07-25T06:34:34;93776.28;;;23.92;92.32
11345;BME280;5727;42.600;23.028;2022-07-25T06:37:01;93775.50;;;23.95;92.99
11345;BME280;5727;42.600;23.028;2022-07-25T06:39:28;93775.44;;;23.99;91.96
11345;BME280;5727;42.600;23.028;2022-07-25T06:41:55;93780.22;;;23.88;91.47
11345;BME280;5727;42.600;23.028;2022-07-25T06:44:25;93769.50;;;23.88;91.73
11345;BME280;5727;42.600;23.028;2022-07-25T06:46:52;93772.41;;;23.97;92.36
11345;BME280;5727;42.600;23.028;2022-07-25T06:49:18;93774.63;;;24.02;89.51
11345;BME280;5727;42.600;23.028;2022-07-25T06:51:45;93763.47;;;24.07;89.98
11345;BME280;5727;42.600;23.028;2022-07-25T06:54:12;93767.25;;;24.09;90.30
11345;BME280;5727;42.600;23.028;2022-07-25T06:56:40;93764.81;;;24.18;89.88
11345;BME280;5727;42.600;23.028;2022-07-25T06:59:06;93762.75;;;24.26;89.62
11345;BME280;5727;42.600;23.028;2022-07-25T07:01:35;93766.75;;;24.37;88.52
11345;BME280;5727;42.600;23.028;2022-07-25T07:04:03;93763.59;;;24.42;88.53
11345;BME280;5727;42.600;23.028;2022-07-25T07:06:30;93764.69;;;24.45;86.68
11345;BME280;5727;42.600;23.028;2022-07-25T07:09:08;93751.50;;;24.54;86.27
11345;BME280;5727;42.600;23.028;2022-07-25T07:11:46;93756.38;;;24.59;85.38
11345;BME280;5727;42.600;23.028;2022-07-25T07:14:14;93756.47;;;24.75;86.10
11345;BME280;5727;42.600;23.028;2022-07-25T07:16:42;93757.84;;;24.83;83.83
11345;BME280;5727;42.600;23.028;2022-07-25T07:19:08;93758.38;;;24.94;85.19
11345;BME280;5727;42.600;23.028;2022-07-25T07:21:36;93751.97;;;25.08;84.84
11345;BME280;5727;42.600;23.028;2022-07-25T07:24:03;93752.31;;;25.10;83.36
11345;BME280;5727;42.600;23.028;2022-07-25T07:26:30;93756.53;;;25.27;83.18
11345;BME280;5727;42.600;23.028;2022-07-25T07:28:57;93749.00;;;25.38;81.34
11345;BME280;5727;42.600;23.028;2022-07-25T07:31:24;93757.41;;;25.40;79.82
11345;BME280;5727;42.600;23.028;2022-07-25T07:33:52;93754.16;;;25.49;80.25
11345;BME280;5727;42.600;23.028;2022-07-25T07:36:19;93757.69;;;25.62;78.78
11345;BME280;5727;42.600;23.028;2022-07-25T07:38:46;93755.25;;;25.67;77.59
11345;BME280;5727;42.600;23.028;2022-07-25T07:41:14;93748.31;;;25.70;78.37
11345;BME280;5727;42.600;23.028;2022-07-25T07:43:41;93741.66;;;25.90;78.50
11345;BME280;5727;42.600;23.028;2022-07-25T07:46:07;93751.66;;;26.06;78.74
11345;BME280;5727;42.600;23.028;2022-07-25T07:48:34;93749.31;;;26.08;75.52
11345;BME280;5727;42.600;23.028;2022-07-25T07:51:03;93743.06;;;26.11;74.32
11345;BME280;5727;42.600;23.028;2022-07-25T07:53:30;93733.91;;;26.24;75.23
11345;BME280;5727;42.600;23.028;2022-07-25T07:56:15;93742.78;;;26.38;72.12
11345;BME280;5727;42.600;23.028;2022-07-25T07:58:43;93740.47;;;26.52;70.23
11345;BME280;5727;42.600;23.028;2022-07-25T08:01:10;93735.97;;;26.62;69.20
11345;BME280;5727;42.600;23.028;2022-07-25T08:03:37;93741.00;;;26.88;69.46
11345;BME280;5727;42.600;23.028;2022-07-25T08:06:05;93739.63;;;26.96;70.32
11345;BME280;5727;42.600;23.028;2022-07-25T08:08:32;93736.94;;;27.09;68.05
11345;BME280;5727;42.600;23.028;2022-07-25T08:10:59;93743.00;;;27.26;68.75
11345;BME280;5727;42.600;23.028;2022-07-25T08:13:27;93748.28;;;27.42;66.77
11345;BME280;5727;42.600;23.028;2022-07-25T08:15:56;93736.47;;;27.52;63.31
11345;BME280;5727;42.600;23.028;2022-07-25T08:18:23;93740.75;;;27.49;64.89
11345;BME280;5727;42.600;23.028;2022-07-25T08:20:51;93743.56;;;27.58;63.29
11345;BME280;5727;42.600;23.028;2022-07-25T08:23:19;93740.53;;;27.69;62.83
11345;BME280;5727;42.600;23.028;2022-07-25T08:25:47;93741.69;;;27.80;57.52
11345;BME280;5727;42.600;23.028;2022-07-25T08:28:14;93730.72;;;27.87;59.03
11345;BME280;5727;42.600;23.028;2022-07-25T08:30:41;93721.31;;;27.92;58.38
11345;BME280;5727;42.600;23.028;2022-07-25T08:33:09;93727.25;;;27.99;58.10
11345;BME280;5727;42.600;23.028;2022-07-25T08:35:38;93733.03;;;28.11;60.06
11345;BME280;5727;42.600;23.028;2022-07-25T08:38:06;93739.41;;;28.04;57.79
11345;BME280;5727;42.600;23.028;2022-07-25T08:40:37;93749.56;;;27.75;56.05
11345;BME280;5727;42.600;23.028;2022-07-25T08:43:04;93746.03;;;27.40;56.37
11345;BME280;5727;42.600;23.028;2022-07-25T08:45:32;93743.66;;;27.30;58.03
11345;BME280;5727;42.600;23.028;2022-07-25T08:47:59;93751.50;;;27.24;55.43
11345;BME280;5727;42.600;23.028;2022-07-25T08:50:27;93745.25;;;27.27;55.53
11345;BME280;5727;42.600;23.028;2022-07-25T08:52:55;93744.22;;;27.50;54.00
11345;BME280;5727;42.600;23.028;2022-07-25T08:55:22;93736.78;;;27.54;52.09
11345;BME280;5727;42.600;23.028;2022-07-25T08:57:52;93726.75;;;27.67;52.25
11345;BME280;5727;42.600;23.028;2022-07-25T09:00:21;93734.81;;;27.67;51.37
11345;BME280;5727;42.600;23.028;2022-07-25T09:02:51;93728.28;;;27.68;49.92
11345;BME280;5727;42.600;23.028;2022-07-25T09:05:19;93712.53;;;27.79;50.76
11345;BME280;5727;42.600;23.028;2022-07-25T09:07:46;93727.72;;;27.73;49.48
11345;BME280;5727;42.600;23.028;2022-07-25T09:10:15;93718.81;;;27.51;48.64
11345;BME280;5727;42.600;23.028;2022-07-25T09:12:51;93724.06;;;27.42;49.33
11345;BME280;5727;42.600;23.028;2022-07-25T09:15:23;93726.88;;;27.38;47.58
11345;BME280;5727;42.600;23.028;2022-07-25T09:17:50;93718.69;;;27.29;46.11
11345;BME280;5727;42.600;23.028;2022-07-25T09:20:18;93712.09;;;27.30;48.20
11345;BME280;5727;42.600;23.028;2022-07-25T09:22:45;93710.50;;;27.58;48.98
11345;BME280;5727;42.600;23.028;2022-07-25T09:25:23;93698.63;;;27.80;47.25
11345;BME280;5727;42.600;23.028;2022-07-25T09:27:51;93699.78;;;27.92;47.60
11345;BME280;5727;42.600;23.028;2022-07-25T09:30:18;93705.72;;;27.87;45.74
11345;BME280;5727;42.600;23.028;2022-07-25T09:32:45;93705.91;;;27.92;45.31
11345;BME280;5727;42.600;23.028;2022-07-25T09:35:12;93701.84;;;28.00;44.37
11345;BME280;5727;42.600;23.028;2022-07-25T09:37:39;93704.16;;;28.11;43.04
11345;BME280;5727;42.600;23.028;2022-07-25T09:40:15;93700.97;;;28.03;42.11
11345;BME280;5727;42.600;23.028;2022-07-25T09:42:41;93696.56;;;27.97;41.55
11345;BME280;5727;42.600;23.028;2022-07-25T09:45:13;93712.91;;;27.90;43.22
11345;BME280;5727;42.600;23.028;2022-07-25T09:47:52;93716.69;;;27.92;42.06
11345;BME280;5727;42.600;23.028;2022-07-25T09:50:21;93706.28;;;27.94;41.84
11345;BME280;5727;42.600;23.028;2022-07-25T09:52:49;93700.47;;;28.18;40.63
11345;BME280;5727;42.600;23.028;2022-07-25T09:55:16;93703.75;;;28.34;41.74
11345;BME280;5727;42.600;23.028;2022-07-25T09:57:44;93706.06;;;28.23;42.14
11345;BME280;5727;42.600;23.028;2022-07-25T10:00:14;93698.63;;;28.27;43.36
11345;BME280;5727;42.600;23.028;2022-07-25T10:02:48;93693.97;;;28.28;43.01
11345;BME280;5727;42.600;23.028;2022-07-25T10:05:19;93690.78;;;28.20;42.51
11345;BME280;5727;42.600;23.028;2022-07-25T10:07:53;93693.03;;;28.22;41.77
11345;BME280;5727;42.600;23.028;2022-07-25T10:10:25;93692.09;;;28.37;41.19
11345;BME280;5727;42.600;23.028;2022-07-25T10:13:04;93686.41;;;28.35;42.28
11345;BME280;5727;42.600;23.028;2022-07-25T10:15:43;93679.81;;;28.36;42.70
11345;BME280;5727;42.600;23.028;2022-07-25T10:18:11;93680.50;;;28.49;42.73
11345;BME280;5727;42.600;23.028;2022-07-25T10:20:38;93683.16;;;28.62;42.12
11345;BME280;5727;42.600;23.028;2022-07-25T10:23:16;93668.28;;;28.79;43.42
11345;BME280;5727;42.600;23.028;2022-07-25T10:25:42;93671.72;;;29.10;41.82
11345;BME280;5727;42.600;23.028;2022-07-25T10:28:09;93670.78;;;28.95;41.85
11345;BME280;5727;42.600;23.028;2022-07-25T10:30:38;93675.31;;;28.76;40.63
11345;BME280;5727;42.600;23.028;2022-07-25T10:33:12;93678.97;;;28.91;41.75
11345;BME280;5727;42.600;23.028;2022-07-25T10:35:39;93662.69;;;29.26;43.81
11345;BME280;5727;42.600;23.028;2022-07-25T10:38:06;93668.22;;;29.71;41.46
11345;BME280;5727;42.600;23.028;2022-07-25T10:40:36;93663.72;;;29.86;40.62
11345;BME280;5727;42.600;23.028;2022-07-25T10:43:07;93666.28;;;29.90;39.46
11345;BME280;5727;42.600;23.028;2022-07-25T10:45:42;93662.63;;;29.65;40.13
11345;BME280;5727;42.600;23.028;2022-07-25T10:48:18;93659.13;;;29.47;40.57
11345;BME280;5727;42.600;23.028;2022-07-25T10:50:48;93653.53;;;29.32;40.98
11345;BME280;5727;42.600;23.028;2022-07-25T10:53:26;93642.66;;;29.54;41.25
11345;BME280;5727;42.600;23.028;2022-07-25T10:55:56;93655.00;;;29.82;40.80
11345;BME280;5727;42.600;23.028;2022-07-25T10:58:23;93644.50;;;29.75;40.07
11345;BME280;5727;42.600;23.028;2022-07-25T11:00:50;93651.09;;;29.74;41.51
11345;BME280;5727;42.600;23.028;2022-07-25T11:03:19;93657.13;;;29.87;41.20
11345;BME280;5727;42.600;23.028;2022-07-25T11:05:46;93653.06;;;29.92;41.38
11345;BME280;5727;42.600;23.028;2022-07-25T11:08:13;93643.63;;;30.05;41.51
11345;BME280;5727;42.600;23.028;2022-07-25T11:10:49;93645.59;;;30.41;40.66
11345;BME280;5727;42.600;23.028;2022-07-25T11:13:16;93641.31;;;30.67;40.32
11345;BME280;5727;42.600;23.028;2022-07-25T11:15:42;93638.97;;;30.42;39.18
11345;BME280;5727;42.600;23.028;2022-07-25T11:18:10;93634.91;;;30.19;39.34
11345;BME280;5727;42.600;23.028;2022-07-25T11:20:38;93634.66;;;30.35;39.41
11345;BME280;5727;42.600;23.028;2022-07-25T11:23:04;93647.94;;;30.57;38.38
11345;BME280;5727;42.600;23.028;2022-07-25T11:25:32;93637.63;;;30.37;40.12
11345;BME280;5727;42.600;23.028;2022-07-25T11:27:59;93641.22;;;30.43;40.03
11345;BME280;5727;42.600;23.028;2022-07-25T11:30:27;93641.81;;;30.20;39.88
11345;BME280;5727;42.600;23.028;2022-07-25T11:32:57;93638.53;;;30.07;39.95
11345;BME280;5727;42.600;23.028;2022-07-25T11:35:27;93639.72;;;29.97;40.51
11345;BME280;5727;42.600;23.028;2022-07-25T11:37:56;93625.59;;;30.11;41.01
11345;BME280;5727;42.600;23.028;2022-07-25T11:40:23;93626.22;;;30.42;41.09
11345;BME280;5727;42.600;23.028;2022-07-25T11:42:51;93628.09;;;30.87;40.06
11345;BME280;5727;42.600;23.028;2022-07-25T11:45:20;93626.63;;;31.10;38.28
11345;BME280;5727;42.600;23.028;2022-07-25T11:47:49;93620.16;;;32.78;34.44
11345;BME280;5727;42.600;23.028;2022-07-25T11:50:16;93621.44;;;34.22;32.07
11345;BME280;5727;42.600;23.028;2022-07-25T11:52:43;93608.59;;;36.48;28.44
11345;BME280;5727;42.600;23.028;2022-07-25T11:55:15;93600.72;;;36.94;26.42
11345;BME280;5727;42.600;23.028;2022-07-25T11:57:45;93602.53;;;36.11;26.56
11345;BME280;5727;42.600;23.028;2022-07-25T12:00:16;93595.22;;;36.61;26.17
11345;BME280;5727;42.600;23.028;2022-07-25T12:02:43;93594.97;;;37.14;25.82
11345;BME280;5727;42.600;23.028;2022-07-25T12:05:13;93590.75;;;36.80;26.66
11345;BME280;5727;42.600;23.028;2022-07-25T12:07:41;93593.38;;;35.60;27.06
11345;BME280;5727;42.600;23.028;2022-07-25T12:10:14;93585.03;;;37.22;25.95
11345;BME280;5727;42.600;23.028;2022-07-25T12:12:47;93586.16;;;37.88;23.79
11345;BME280;5727;42.600;23.028;2022-07-25T12:15:17;93584.94;;;38.76;22.30
11345;BME280;5727;42.600;23.028;2022-07-25T12:17:44;93574.41;;;37.98;23.44
11345;BME280;5727;42.600;23.028;2022-07-25T12:20:15;93571.44;;;37.96;23.50
11345;BME280;5727;42.600;23.028;2022-07-25T12:22:42;93573.34;;;38.59;23.65
11345;BME280;5727;42.600;23.028;2022-07-25T12:25:10;93574.56;;;40.69;21.51
11345;BME280;5727;42.600;23.028;2022-07-25T12:27:38;93558.38;;;40.84;20.65
11345;BME280;5727;42.600;23.028;2022-07-25T12:30:06;93565.13;;;41.15;20.10
11345;BME280;5727;42.600;23.028;2022-07-25T12:32:34;93564.75;;;40.05;21.16
11345;BME280;5727;42.600;23.028;2022-07-25T12:35:01;93560.84;;;37.71;24.43
11345;BME280;5727;42.600;23.028;2022-07-25T12:37:28;93565.34;;;36.19;25.74
11345;BME280;5727;42.600;23.028;2022-07-25T12:39:54;93563.34;;;35.07;27.43
11345;BME280;5727;42.600;23.028;2022-07-25T12:42:21;93557.81;;;35.38;27.84
11345;BME280;5727;42.600;23.028;2022-07-25T12:44:50;93545.00;;;36.03;26.86
11345;BME280;5727;42.600;23.028;2022-07-25T12:47:17;93553.50;;;34.84;27.70
11345;BME280;5727;42.600;23.028;2022-07-25T12:49:45;93546.13;;;35.27;27.63
11345;BME280;5727;42.600;23.028;2022-07-25T12:52:11;93549.09;;;37.92;24.97
11345;BME280;5727;42.600;23.028;2022-07-25T12:54:38;93547.88;;;39.77;22.01
11345;BME280;5727;42.600;23.028;2022-07-25T12:57:06;93543.31;;;40.03;21.96
11345;BME280;5727;42.600;23.028;2022-07-25T12:59:33;93534.91;;;40.83;21.23